Time,TemperatureF,DewpointF,PressureIn,WindDirection,WindDirectionDegrees,WindSpeedMPH,WindSpeedGustMPH,Humidity,HourlyPrecipIn,Conditions,Clouds,dailyrainin,SoftwareType,DateUTC
2013-10-05 00:00:00,64.1,62.0,30.09,North,360,0.0,0.0,93,0.00,,,0.00,Wunderground v.1.15,2013-10-05 04:00:00,
2013-10-05 00:05:00,64.0,61.9,30.09,North,360,0.0,0.0,93,0.00,,,0.00,Wunderground v.1.15,2013-10-05 04:05:00,
2013-10-05 00:10:00,64.0,61.9,30.09,North,360,0.0,0.0,93,0.00,,,0.00,Wunderground v.1.15,2013-10-05 04:10:00,
2013-10-05 00:15:00,63.9,61.8,30.09,North,360,0.0,0.0,93,0.00,,,0.00,Wunderground v.1.15,2013-10-05 04:15:00,
2013-10-05 00:20:00,63.8,61.7,30.09,North,360,0.0,0.0,93,0.00,,,0.00,Wunderground v.1.15,2013-10-05 04:20:00,
2013-10-05 00:30:00,63.6,61.8,30.08,North,360,0.0,0.0,94,0.00,,,0.00,Wunderground v.1.15,2013-10-05 04:30:00,
2013-10-05 00:40:00,63.4,61.9,30.08,North,360,0.0,0.0,95,0.00,,,0.00,Wunderground v.1.15,2013-10-05 04:40:00,
2013-10-05 00:50:00,63.3,61.8,30.08,North,360,0.0,0.0,95,0.00,,,0.00,Wunderground v.1.15,2013-10-05 04:50:00,
2013-10-05 00:55:00,63.2,61.7,30.08,North,360,0.0,0.0,95,0.00,,,0.00,Wunderground v.1.15,2013-10-05 04:55:00,
2013-10-05 01:10:00,62.8,61.3,30.08,North,32767,0.0,0.0,95,0.00,,,0.00,Wunderground v.1.15,2013-10-05 05:10:00,
2013-10-05 01:19:00,62.7,61.5,30.08,North,32767,0.0,0.0,96,0.00,,,0.00,Wunderground v.1.15,2013-10-05 05:19:00,
2013-10-05 01:25:00,62.6,61.4,30.08,North,32767,0.0,0.0,96,0.00,,,0.00,Wunderground v.1.15,2013-10-05 05:25:00,
2013-10-05 01:35:00,62.4,61.2,30.08,North,32767,0.0,0.0,96,0.00,,,0.00,Wunderground v.1.15,2013-10-05 05:35:00,
2013-10-05 01:45:00,62.2,61.0,30.09,North,32767,0.0,0.0,96,0.00,,,0.00,Wunderground v.1.15,2013-10-05 05:45:00,
2013-10-05 01:54:00,62.0,61.1,30.08,North,360,0.0,0.0,97,0.00,,,0.00,Wunderground v.1.15,2013-10-05 05:54:00,
2013-10-05 02:00:00,61.9,61.0,30.08,North,360,0.0,0.0,97,0.00,,,0.00,Wunderground v.1.15,2013-10-05 06:00:00,
2013-10-05 02:05:00,61.8,60.9,30.08,North,360,0.0,0.0,97,0.00,,,0.00,Wunderground v.1.15,2013-10-05 06:05:00,
2013-10-05 02:15:00,61.8,60.9,30.08,North,360,0.0,0.0,97,0.00,,,0.00,Wunderground v.1.15,2013-10-05 06:15:00,
2013-10-05 02:25:00,62.0,61.4,30.09,North,32767,0.0,0.0,98,0.00,,,0.00,Wunderground v.1.15,2013-10-05 06:25:00,
2013-10-05 02:35:00,62.1,61.5,30.08,North,360,0.0,0.0,98,0.00,,,0.00,Wunderground v.1.15,2013-10-05 06:35:00,
2013-10-05 02:44:00,62.0,61.4,30.08,North,32767,0.0,0.0,98,0.00,,,0.00,Wunderground v.1.15,2013-10-05 06:44:00,
2013-10-05 02:50:00,62.0,61.4,30.08,North,32767,0.0,0.0,98,0.00,,,0.00,Wunderground v.1.15,2013-10-05 06:50:00,
2013-10-05 03:00:00,62.1,61.5,30.08,North,360,0.0,0.0,98,0.00,,,0.00,Wunderground v.1.15,2013-10-05 07:00:00,
2013-10-05 03:05:00,62.0,61.4,30.08,North,360,0.0,0.0,98,0.00,,,0.00,Wunderground v.1.15,2013-10-05 07:05:00,
2013-10-05 03:15:00,61.8,61.2,30.08,North,32767,0.0,0.0,98,0.00,,,0.00,Wunderground v.1.15,2013-10-05 07:15:00,
2013-10-05 03:25:00,61.6,61.0,30.07,North,360,0.0,0.0,98,0.00,,,0.00,Wunderground v.1.15,2013-10-05 07:25:00,
2013-10-05 03:30:00,61.5,60.9,30.07,North,360,0.0,0.0,98,0.00,,,0.00,Wunderground v.1.15,2013-10-05 07:30:00,
2013-10-05 03:40:00,61.3,60.4,30.07,North,360,0.0,0.0,97,0.00,,,0.00,Wunderground v.1.15,2013-10-05 07:40:00,
2013-10-05 03:50:00,61.1,60.5,30.07,North,32767,0.0,0.0,98,0.00,,,0.00,Wunderground v.1.15,2013-10-05 07:50:00,
2013-10-05 04:00:00,60.9,60.3,30.07,North,360,0.0,0.0,98,0.00,,,0.00,Wunderground v.1.15,2013-10-05 08:00:00,
2013-10-05 04:05:00,60.8,60.2,30.07,North,360,0.0,0.0,98,0.00,,,0.00,Wunderground v.1.15,2013-10-05 08:05:00,
2013-10-05 04:15:00,60.5,59.9,30.07,North,360,0.0,0.0,98,0.00,,,0.00,Wunderground v.1.15,2013-10-05 08:15:00,
2013-10-05 04:25:00,60.5,59.9,30.07,North,32767,0.0,0.0,98,0.00,,,0.00,Wunderground v.1.15,2013-10-05 08:25:00,
2013-10-05 04:30:00,60.4,59.8,30.07,North,32767,0.0,0.0,98,0.00,,,0.00,Wunderground v.1.15,2013-10-05 08:30:00,
2013-10-05 04:40:00,60.3,59.7,30.07,North,32767,0.0,0.0,98,0.00,,,0.00,Wunderground v.1.15,2013-10-05 08:40:00,
2013-10-05 04:45:00,60.5,59.9,30.07,North,360,0.0,0.0,98,0.00,,,0.00,Wunderground v.1.15,2013-10-05 08:45:00,
2013-10-05 04:55:00,60.5,60.2,30.07,North,32767,0.0,0.0,99,0.00,,,0.00,Wunderground v.1.15,2013-10-05 08:55:00,
2013-10-05 05:00:00,60.6,60.3,30.07,North,360,0.0,0.0,99,0.00,,,0.00,Wunderground v.1.15,2013-10-05 09:00:00,
2013-10-05 05:05:00,60.5,60.2,30.07,North,360,0.0,0.0,99,0.00,,,0.00,Wunderground v.1.15,2013-10-05 09:05:00,
2013-10-05 05:14:00,60.3,59.7,30.08,North,360,0.0,0.0,98,0.00,,,0.00,Wunderground v.1.15,2013-10-05 09:14:00,
2013-10-05 05:20:00,60.2,59.6,30.08,North,32767,0.0,0.0,98,0.00,,,0.00,Wunderground v.1.15,2013-10-05 09:20:00,
2013-10-05 05:30:00,60.2,59.6,30.08,North,32767,0.0,0.0,98,0.00,,,0.00,Wunderground v.1.15,2013-10-05 09:30:00,
2013-10-05 05:35:00,60.1,59.5,30.08,North,32767,0.0,0.0,98,0.00,,,0.00,Wunderground v.1.15,2013-10-05 09:35:00,
2013-10-05 05:45:00,60.0,59.7,30.09,North,32767,0.0,0.0,99,0.00,,,0.00,Wunderground v.1.15,2013-10-05 09:45:00,
2013-10-05 05:55:00,59.9,59.6,30.09,North,360,0.0,0.0,99,0.00,,,0.00,Wunderground v.1.15,2013-10-05 09:55:00,
2013-10-05 06:00:00,59.8,59.5,30.09,North,32767,0.0,0.0,99,0.00,,,0.00,Wunderground v.1.15,2013-10-05 10:00:00,
2013-10-05 06:05:00,59.7,59.4,30.09,North,32767,0.0,0.0,99,0.00,,,0.00,Wunderground v.1.15,2013-10-05 10:05:00,
2013-10-05 06:15:00,59.1,58.5,30.09,North,32767,0.0,0.0,98,0.00,,,0.00,Wunderground v.1.15,2013-10-05 10:15:00,
2013-10-05 06:25:00,59.0,58.7,30.09,North,360,0.0,0.0,99,0.00,,,0.00,Wunderground v.1.15,2013-10-05 10:25:00,
2013-10-05 06:30:00,59.7,59.4,30.09,North,32767,0.0,0.0,99,0.00,,,0.00,Wunderground v.1.15,2013-10-05 10:30:00,
2013-10-05 06:39:00,60.0,59.7,30.09,North,32767,0.0,0.0,99,0.00,,,0.00,Wunderground v.1.15,2013-10-05 10:39:00,
2013-10-05 06:45:00,60.1,59.8,30.10,North,32767,0.0,0.0,99,0.00,,,0.00,Wunderground v.1.15,2013-10-05 10:45:00,
2013-10-05 06:55:00,59.5,59.2,30.10,North,360,0.0,0.0,99,0.00,,,0.00,Wunderground v.1.15,2013-10-05 10:55:00,
2013-10-05 07:05:00,59.3,59.0,30.10,North,32767,0.0,0.0,99,0.00,,,0.00,Wunderground v.1.15,2013-10-05 11:05:00,
2013-10-05 07:15:00,59.0,58.4,30.11,North,32767,0.0,0.0,98,0.00,,,0.00,Wunderground v.1.15,2013-10-05 11:15:00,
2013-10-05 07:25:00,57.9,57.3,30.11,North,360,0.0,0.0,98,0.00,,,0.00,Wunderground v.1.15,2013-10-05 11:25:00,
2013-10-05 07:30:00,57.6,57.0,30.11,North,32767,0.0,0.0,98,0.00,,,0.00,Wunderground v.1.15,2013-10-05 11:30:00,
2013-10-05 07:40:00,57.2,56.6,30.11,North,32767,0.0,0.0,98,0.00,,,0.00,Wunderground v.1.15,2013-10-05 11:40:00,
2013-10-05 07:50:00,56.9,56.3,30.11,North,32767,0.0,0.0,98,0.00,,,0.00,Wunderground v.1.15,2013-10-05 11:50:00,
2013-10-05 08:00:00,57.3,57.0,30.11,North,32767,0.0,0.0,99,0.00,,,0.00,Wunderground v.1.15,2013-10-05 12:00:00,
2013-10-05 08:05:00,57.3,57.0,30.11,North,32767,0.0,0.0,99,0.00,,,0.00,Wunderground v.1.15,2013-10-05 12:05:00,
2013-10-05 08:14:00,57.4,57.1,30.11,North,32767,0.0,0.0,99,0.00,,,0.00,Wunderground v.1.15,2013-10-05 12:14:00,
2013-10-05 08:25:00,57.7,57.4,30.12,North,32767,0.0,0.0,99,0.00,,,0.00,Wunderground v.1.15,2013-10-05 12:25:00,
2013-10-05 08:35:00,58.0,57.7,30.11,North,32767,0.0,0.0,99,0.00,,,0.00,Wunderground v.1.15,2013-10-05 12:35:00,
2013-10-05 08:40:00,58.3,58.0,30.12,North,32767,0.0,0.0,99,0.00,,,0.00,Wunderground v.1.15,2013-10-05 12:40:00,
2013-10-05 08:45:00,58.6,58.3,30.12,North,360,0.0,0.0,99,0.00,,,0.00,Wunderground v.1.15,2013-10-05 12:45:00,
2013-10-05 08:50:00,58.7,58.4,30.12,North,360,0.0,0.0,99,0.00,,,0.00,Wunderground v.1.15,2013-10-05 12:50:00,
2013-10-05 08:55:00,59.0,58.7,30.12,North,360,0.0,0.0,99,0.00,,,0.00,Wunderground v.1.15,2013-10-05 12:55:00,
2013-10-05 09:05:00,59.6,59.6,30.12,North,32767,0.0,0.0,100,0.00,,,0.00,Wunderground v.1.15,2013-10-05 13:05:00,
2013-10-05 09:15:00,59.8,59.8,30.12,North,32767,0.0,0.0,100,0.00,,,0.00,Wunderground v.1.15,2013-10-05 13:15:00,
2013-10-05 09:25:00,59.6,59.3,30.12,North,360,0.0,0.0,99,0.00,,,0.00,Wunderground v.1.15,2013-10-05 13:25:00,
2013-10-05 09:34:00,59.4,59.1,30.11,North,32767,0.0,0.0,99,0.00,,,0.00,Wunderground v.1.15,2013-10-05 13:34:00,
2013-10-05 09:40:00,59.5,59.2,30.11,North,32767,0.0,0.0,99,0.00,,,0.00,Wunderground v.1.15,2013-10-05 13:40:00,
2013-10-05 09:50:00,60.4,60.4,30.11,North,32767,0.0,0.0,100,0.00,,,0.00,Wunderground v.1.15,2013-10-05 13:50:00,
2013-10-05 09:55:00,60.6,60.6,30.11,North,360,0.0,0.0,100,0.00,,,0.00,Wunderground v.1.15,2013-10-05 13:55:00,
2013-10-05 10:05:00,60.7,60.7,30.11,North,32767,0.0,0.0,100,0.00,,,0.00,Wunderground v.1.15,2013-10-05 14:05:00,
2013-10-05 10:15:00,60.9,60.9,30.11,North,32767,0.0,0.0,100,0.00,,,0.00,Wunderground v.1.15,2013-10-05 14:15:00,
2013-10-05 10:25:00,61.3,61.3,30.11,North,360,0.0,0.0,100,0.00,,,0.00,Wunderground v.1.15,2013-10-05 14:25:00,
2013-10-05 10:35:00,61.6,61.6,30.11,North,32767,0.0,0.0,100,0.00,,,0.00,Wunderground v.1.15,2013-10-05 14:35:00,
2013-10-05 10:45:00,61.7,61.7,30.11,North,32767,0.0,0.0,100,0.00,,,0.00,Wunderground v.1.15,2013-10-05 14:45:00,
2013-10-05 10:50:00,61.8,61.8,30.11,North,32767,0.0,0.0,100,0.00,,,0.00,Wunderground v.1.15,2013-10-05 14:50:00,
2013-10-05 10:55:00,61.8,61.8,30.11,North,360,0.0,0.0,100,0.00,,,0.00,Wunderground v.1.15,2013-10-05 14:55:00,
2013-10-05 11:05:00,62.1,62.1,30.11,North,32767,0.0,0.0,100,0.00,,,0.00,Wunderground v.1.15,2013-10-05 15:05:00,
2013-10-05 11:15:00,62.3,62.3,30.10,North,32767,0.0,0.0,100,0.00,,,0.00,Wunderground v.1.15,2013-10-05 15:15:00,
2013-10-05 11:24:00,62.9,62.9,30.10,North,32767,0.0,0.0,100,0.00,,,0.00,Wunderground v.1.15,2013-10-05 15:24:00,
2013-10-05 11:29:00,63.1,63.1,30.10,North,360,0.0,0.0,100,0.00,,,0.00,Wunderground v.1.15,2013-10-05 15:29:00,
2013-10-05 11:35:00,64.1,64.1,30.10,North,32767,0.0,0.0,100,0.00,,,0.00,Wunderground v.1.15,2013-10-05 15:35:00,
2013-10-05 11:40:00,64.3,64.3,30.10,North,360,0.0,0.0,100,0.00,,,0.00,Wunderground v.1.15,2013-10-05 15:40:00,
2013-10-05 11:45:00,64.2,63.9,30.10,North,360,0.0,0.0,99,0.00,,,0.00,Wunderground v.1.15,2013-10-05 15:45:00,
2013-10-05 11:55:00,64.8,64.5,30.10,North,360,0.0,0.0,99,0.00,,,0.00,Wunderground v.1.15,2013-10-05 15:55:00,
2013-10-05 12:05:00,67.1,65.3,30.10,North,32767,0.0,0.0,94,0.00,,,0.00,Wunderground v.1.15,2013-10-05 16:05:00,
2013-10-05 12:14:00,68.9,65.5,30.10,North,32767,0.0,0.0,89,0.00,,,0.00,Wunderground v.1.15,2013-10-05 16:14:00,
2013-10-05 12:20:00,69.6,65.9,30.09,North,32767,0.0,0.0,88,0.00,,,0.00,Wunderground v.1.15,2013-10-05 16:20:00,
2013-10-05 12:30:00,69.9,65.9,30.09,North,32767,0.0,0.0,87,0.00,,,0.00,Wunderground v.1.15,2013-10-05 16:30:00,
2013-10-05 12:40:00,70.2,65.5,30.09,North,32767,0.0,0.0,85,0.00,,,0.00,Wunderground v.1.15,2013-10-05 16:40:00,
2013-10-05 12:45:00,70.6,65.9,30.09,North,32767,0.0,0.0,85,0.00,,,0.00,Wunderground v.1.15,2013-10-05 16:45:00,
2013-10-05 12:50:00,70.9,65.1,30.09,North,32767,0.0,0.0,82,0.00,,,0.00,Wunderground v.1.15,2013-10-05 16:50:00,
2013-10-05 12:59:00,71.3,64.8,30.08,North,32767,0.0,0.0,80,0.00,,,0.00,Wunderground v.1.15,2013-10-05 16:59:00,
2013-10-05 13:05:00,71.5,64.6,30.08,North,360,0.0,0.0,79,0.00,,,0.00,Wunderground v.1.15,2013-10-05 17:05:00,
2013-10-05 13:14:00,72.2,65.7,30.08,North,32767,0.0,0.0,80,0.00,,,0.00,Wunderground v.1.15,2013-10-05 17:14:00,
2013-10-05 13:19:00,72.7,65.8,30.08,North,360,0.0,0.0,79,0.00,,,0.00,Wunderground v.1.15,2013-10-05 17:19:00,
2013-10-05 13:25:00,73.1,66.2,30.07,North,360,0.0,0.0,79,0.00,,,0.00,Wunderground v.1.15,2013-10-05 17:25:00,
2013-10-05 13:35:00,73.8,66.5,30.07,North,32767,0.0,0.0,78,0.00,,,0.00,Wunderground v.1.15,2013-10-05 17:35:00,
2013-10-05 13:45:00,74.4,66.0,30.06,North,32767,0.0,0.0,75,0.00,,,0.00,Wunderground v.1.15,2013-10-05 17:45:00,
2013-10-05 13:55:00,74.9,66.1,30.06,North,32767,0.0,0.0,74,0.00,,,0.00,Wunderground v.1.15,2013-10-05 17:55:00,
2013-10-05 14:00:00,75.1,65.1,30.05,North,32767,0.0,0.0,71,0.00,,,0.00,Wunderground v.1.15,2013-10-05 18:00:00,
2013-10-05 14:05:00,75.4,65.7,30.05,North,32767,0.0,0.0,72,0.00,,,0.00,Wunderground v.1.15,2013-10-05 18:05:00,
2013-10-05 14:15:00,75.9,65.8,30.04,North,32767,0.0,0.0,71,0.00,,,0.00,Wunderground v.1.15,2013-10-05 18:15:00,
2013-10-05 14:25:00,76.5,66.4,30.04,North,32767,0.0,0.0,71,0.00,,,0.00,Wunderground v.1.15,2013-10-05 18:25:00,
2013-10-05 14:35:00,76.8,64.6,30.04,North,32767,0.0,0.0,66,0.00,,,0.00,Wunderground v.1.15,2013-10-05 18:35:00,
2013-10-05 14:45:00,77.5,64.8,30.03,North,32767,0.0,0.0,65,0.00,,,0.00,Wunderground v.1.15,2013-10-05 18:45:00,
2013-10-05 14:50:00,77.6,64.5,30.03,North,32767,0.0,0.0,64,0.00,,,0.00,Wunderground v.1.15,2013-10-05 18:50:00,
2013-10-05 15:00:00,78.3,64.2,30.03,North,32767,0.0,0.0,62,0.00,,,0.00,Wunderground v.1.15,2013-10-05 19:00:00,
2013-10-05 15:05:00,77.7,64.5,30.03,North,32767,0.0,0.0,64,0.00,,,0.00,Wunderground v.1.15,2013-10-05 19:05:00,
2013-10-05 15:14:00,77.6,64.5,30.03,North,360,0.0,0.0,64,0.00,,,0.00,Wunderground v.1.15,2013-10-05 19:14:00,
2013-10-05 15:20:00,77.7,63.6,30.02,North,360,0.0,0.0,62,0.00,,,0.00,Wunderground v.1.15,2013-10-05 19:20:00,
2013-10-05 15:30:00,77.8,64.2,30.02,North,360,0.0,0.0,63,0.00,,,0.00,Wunderground v.1.15,2013-10-05 19:30:00,
2013-10-05 15:40:00,77.9,63.4,30.02,North,32767,0.0,0.0,61,0.00,,,0.00,Wunderground v.1.15,2013-10-05 19:40:00,
2013-10-05 15:50:00,77.9,63.4,30.01,North,360,0.0,0.0,61,0.00,,,0.00,Wunderground v.1.15,2013-10-05 19:50:00,
2013-10-05 16:00:00,77.8,63.7,30.01,North,360,0.0,0.0,62,0.00,,,0.00,Wunderground v.1.15,2013-10-05 20:00:00,
2013-10-05 16:05:00,77.9,64.7,30.01,North,32767,0.0,0.0,64,0.00,,,0.00,Wunderground v.1.15,2013-10-05 20:05:00,
2013-10-05 16:15:00,78.4,64.3,30.01,North,360,0.0,0.0,62,0.00,,,0.00,Wunderground v.1.15,2013-10-05 20:15:00,
2013-10-05 16:25:00,78.3,65.1,30.01,North,32767,0.0,0.0,64,0.00,,,0.00,Wunderground v.1.15,2013-10-05 20:25:00,
2013-10-05 16:35:00,78.2,64.1,30.01,North,360,0.0,0.0,62,0.00,,,0.00,Wunderground v.1.15,2013-10-05 20:35:00,
2013-10-05 16:40:00,78.2,64.1,30.00,North,32767,0.0,0.0,62,0.00,,,0.00,Wunderground v.1.15,2013-10-05 20:40:00,
2013-10-05 16:50:00,78.2,65.5,30.01,North,32767,0.0,0.0,65,0.00,,,0.00,Wunderground v.1.15,2013-10-05 20:50:00,
2013-10-05 16:55:00,78.3,65.6,30.00,North,32767,0.0,0.0,65,0.00,,,0.00,Wunderground v.1.15,2013-10-05 20:55:00,
2013-10-05 17:05:00,77.8,66.0,30.00,North,32767,0.0,0.0,67,0.00,,,0.00,Wunderground v.1.15,2013-10-05 21:05:00,
2013-10-05 17:15:00,77.6,65.3,30.00,North,360,0.0,0.0,66,0.00,,,0.00,Wunderground v.1.15,2013-10-05 21:15:00,
2013-10-05 17:25:00,77.3,65.5,30.00,North,32767,0.0,0.0,67,0.00,,,0.00,Wunderground v.1.15,2013-10-05 21:25:00,
2013-10-05 17:30:00,77.2,67.1,30.00,North,32767,0.0,0.0,71,0.00,,,0.00,Wunderground v.1.15,2013-10-05 21:30:00,
2013-10-05 17:39:00,76.8,65.9,29.99,North,32767,0.0,0.0,69,0.00,,,0.00,Wunderground v.1.15,2013-10-05 21:39:00,
2013-10-05 17:45:00,76.7,65.8,29.99,North,32767,0.0,0.0,69,0.00,,,0.00,Wunderground v.1.15,2013-10-05 21:45:00,
2013-10-05 17:55:00,76.3,65.8,29.99,North,32767,0.0,0.0,70,0.00,,,0.00,Wunderground v.1.15,2013-10-05 21:55:00,
2013-10-05 18:05:00,76.0,65.9,30.00,North,32767,0.0,0.0,71,0.00,,,0.00,Wunderground v.1.15,2013-10-05 22:05:00,
2013-10-05 18:15:00,75.7,65.6,30.00,North,32767,0.0,0.0,71,0.00,,,0.00,Wunderground v.1.15,2013-10-05 22:15:00,
2013-10-05 18:24:00,75.3,65.6,30.00,North,32767,0.0,0.0,72,0.00,,,0.00,Wunderground v.1.15,2013-10-05 22:24:00,
2013-10-05 18:30:00,75.1,65.9,30.00,North,32767,0.0,0.0,73,0.00,,,0.00,Wunderground v.1.15,2013-10-05 22:30:00,
2013-10-05 18:40:00,74.4,66.0,30.00,North,32767,0.0,0.0,75,0.00,,,0.00,Wunderground v.1.15,2013-10-05 22:40:00,
2013-10-05 18:50:00,73.6,65.9,30.00,North,360,0.0,0.0,77,0.00,,,0.00,Wunderground v.1.15,2013-10-05 22:50:00,
2013-10-05 18:59:00,72.8,65.5,30.00,North,32767,0.0,0.0,78,0.00,,,0.00,Wunderground v.1.15,2013-10-05 22:59:00,
2013-10-05 19:05:00,72.3,65.1,29.99,North,360,0.0,0.0,78,0.00,,,0.00,Wunderground v.1.15,2013-10-05 23:05:00,
2013-10-05 19:15:00,71.4,64.5,30.00,North,32767,0.0,0.0,79,0.00,,,0.00,Wunderground v.1.15,2013-10-05 23:15:00,
2013-10-05 19:25:00,70.8,64.3,30.00,North,32767,0.0,0.0,80,0.00,,,0.00,Wunderground v.1.15,2013-10-05 23:25:00,
2013-10-05 19:35:00,70.2,64.1,30.00,North,360,0.0,0.0,81,0.00,,,0.00,Wunderground v.1.15,2013-10-05 23:35:00,
2013-10-05 19:45:00,69.7,64.0,30.01,North,360,0.0,0.0,82,0.00,,,0.00,Wunderground v.1.15,2013-10-05 23:45:00,
2013-10-05 19:55:00,69.3,63.9,30.01,North,32767,0.0,0.0,83,0.00,,,0.00,Wunderground v.1.15,2013-10-05 23:55:00,
2013-10-05 20:05:00,68.9,63.5,30.01,North,32767,0.0,0.0,83,0.00,,,0.00,Wunderground v.1.15,2013-10-06 00:05:00,
2013-10-05 20:15:00,68.7,63.7,30.01,North,360,0.0,0.0,84,0.00,,,0.00,Wunderground v.1.15,2013-10-06 00:15:00,
2013-10-05 20:20:00,68.6,63.2,30.01,North,32767,0.0,0.0,83,0.00,,,0.00,Wunderground v.1.15,2013-10-06 00:20:00,
2013-10-05 20:30:00,68.5,63.5,30.01,North,32767,0.0,0.0,84,0.00,,,0.00,Wunderground v.1.15,2013-10-06 00:30:00,
2013-10-05 20:39:00,68.5,63.5,30.02,North,32767,0.0,0.0,84,0.00,,,0.00,Wunderground v.1.15,2013-10-06 00:39:00,
2013-10-05 20:45:00,68.5,63.5,30.02,North,32767,0.0,0.0,84,0.00,,,0.00,Wunderground v.1.15,2013-10-06 00:45:00,
2013-10-05 20:55:00,68.4,63.4,30.02,North,32767,0.0,0.0,84,0.00,,,0.00,Wunderground v.1.15,2013-10-06 00:55:00,
2013-10-05 21:00:00,68.3,63.3,30.02,North,360,0.0,0.0,84,0.00,,,0.00,Wunderground v.1.15,2013-10-06 01:00:00,
2013-10-05 21:05:00,68.1,63.1,30.02,North,360,0.0,0.0,84,0.00,,,0.00,Wunderground v.1.15,2013-10-06 01:05:00,
2013-10-05 21:15:00,67.8,63.1,30.02,North,32767,0.0,0.0,85,0.00,,,0.00,Wunderground v.1.15,2013-10-06 01:15:00,
2013-10-05 21:25:00,67.5,62.8,30.02,North,32767,0.0,0.0,85,0.00,,,0.00,Wunderground v.1.15,2013-10-06 01:25:00,
2013-10-05 21:30:00,67.4,63.1,30.02,North,360,0.0,0.0,86,0.00,,,0.00,Wunderground v.1.15,2013-10-06 01:30:00,
2013-10-05 21:35:00,67.2,62.9,30.03,North,32767,0.0,0.0,86,0.00,,,0.00,Wunderground v.1.15,2013-10-06 01:35:00,
2013-10-05 21:40:00,67.0,63.0,30.03,North,32767,0.0,0.0,87,0.00,,,0.00,Wunderground v.1.15,2013-10-06 01:40:00,
2013-10-05 21:50:00,66.8,62.8,30.03,North,32767,0.0,0.0,87,0.00,,,0.00,Wunderground v.1.15,2013-10-06 01:50:00,
2013-10-05 21:55:00,66.7,62.7,30.03,North,32767,0.0,0.0,87,0.00,,,0.00,Wunderground v.1.15,2013-10-06 01:55:00,
2013-10-05 22:05:00,66.6,62.6,30.03,North,360,0.0,0.0,87,0.00,,,0.00,Wunderground v.1.15,2013-10-06 02:05:00,
2013-10-05 22:15:00,66.5,62.5,30.03,North,360,0.0,0.0,87,0.00,,,0.00,Wunderground v.1.15,2013-10-06 02:15:00,
2013-10-05 22:24:00,66.3,62.3,30.03,North,360,0.0,0.0,87,0.00,,,0.00,Wunderground v.1.15,2013-10-06 02:24:00,
2013-10-05 22:30:00,66.3,62.3,30.03,North,360,0.0,0.0,87,0.00,,,0.00,Wunderground v.1.15,2013-10-06 02:30:00,
2013-10-05 22:40:00,66.2,62.2,30.03,North,360,0.0,0.0,87,0.00,,,0.00,Wunderground v.1.15,2013-10-06 02:40:00,
2013-10-05 22:50:00,66.0,62.0,30.03,North,360,0.0,0.0,87,0.00,,,0.00,Wunderground v.1.15,2013-10-06 02:50:00,
2013-10-05 23:00:00,65.9,62.2,30.02,North,32767,0.0,0.0,88,0.00,,,0.00,Wunderground v.1.15,2013-10-06 03:00:00,
2013-10-05 23:05:00,65.9,62.2,30.02,North,360,0.0,0.0,88,0.00,,,0.00,Wunderground v.1.15,2013-10-06 03:05:00,
2013-10-05 23:15:00,65.8,62.1,30.02,North,32767,0.0,0.0,88,0.00,,,0.00,Wunderground v.1.15,2013-10-06 03:15:00,
2013-10-05 23:20:00,65.8,62.1,30.02,North,32767,0.0,0.0,88,0.00,,,0.00,Wunderground v.1.15,2013-10-06 03:20:00,
2013-10-05 23:30:00,65.5,61.9,30.02,North,360,0.0,0.0,88,0.00,,,0.00,Wunderground v.1.15,2013-10-06 03:30:00,
2013-10-05 23:40:00,65.3,62.0,30.02,North,32767,0.0,0.0,89,0.00,,,0.00,Wunderground v.1.15,2013-10-06 03:40:00,
2013-10-05 23:45:00,65.2,61.9,30.02,North,360,0.0,0.0,89,0.00,,,0.00,Wunderground v.1.15,2013-10-06 03:45:00,
2013-10-05 23:50:00,65.3,62.0,30.02,North,360,0.0,0.0,89,0.00,,,0.00,Wunderground v.1.15,2013-10-06 03:50:00,